createdAt,value
2023-05-23T00:01:39.908Z,100764.91
2023-05-23T00:04:06.944Z,100761.44
2023-05-23T00:06:34.305Z,100760.75
2023-05-23T00:09:01.360Z,100762.50
2023-05-23T00:11:29.159Z,100755.38
2023-05-23T00:14:01.039Z,100759.00
2023-05-23T00:16:28.005Z,100759.94
2023-05-23T00:18:57.532Z,100759.16
2023-05-23T00:21:24.564Z,100761.03
2023-05-23T00:23:51.450Z,100761.97
2023-05-23T00:26:18.324Z,100754.03
2023-05-23T00:28:45.217Z,100755.91
2023-05-23T00:31:12.178Z,100750.53
2023-05-23T00:33:39.017Z,100744.28
2023-05-23T00:36:06.097Z,100743.31
2023-05-23T00:38:33.017Z,100751.50
2023-05-23T00:41:00.146Z,100759.59
2023-05-23T00:43:27.526Z,100755.19
2023-05-23T00:45:54.352Z,100748.91
2023-05-23T00:48:21.585Z,100748.91
2023-05-23T00:50:48.536Z,100754.31
2023-05-23T00:53:16.926Z,100757.97
2023-05-23T00:55:45.009Z,100750.81
2023-05-23T00:58:13.128Z,100752.69
2023-05-23T01:00:40.190Z,100748.25
2023-05-23T01:03:07.121Z,100739.31
2023-05-23T01:05:34.032Z,100735.59
2023-05-23T01:08:03.306Z,100732.84
2023-05-23T01:10:31.485Z,100732.84
2023-05-23T01:13:20.922Z,100739.94
2023-05-23T01:16:02.961Z,100741.81
2023-05-23T01:18:38.377Z,100740.03
2023-05-23T01:21:17.028Z,100731.06
2023-05-23T01:24:12.818Z,100739.16
2023-05-23T01:27:11.755Z,100740.16
2023-05-23T01:29:45.704Z,100734.91
2023-05-23T01:32:14.389Z,100752.03
2023-05-23T01:34:43.703Z,100752.13
2023-05-23T01:37:14.463Z,100748.69
2023-05-23T01:39:42.164Z,100755.13
2023-05-23T01:42:09.540Z,100751.72
2023-05-23T01:44:37.331Z,100752.75
2023-05-23T01:47:06.094Z,100749.97
2023-05-23T01:49:34.463Z,100741.16
2023-05-23T01:52:02.500Z,100761.09
2023-05-23T01:54:30.532Z,100756.84
2023-05-23T01:56:58.199Z,100765.13
2023-05-23T01:59:25.411Z,100765.28
2023-05-23T02:01:52.843Z,100769.78
2023-05-23T02:04:19.703Z,100770.81
2023-05-23T02:06:47.336Z,100780.03
2023-05-23T02:09:14.555Z,100786.66
2023-05-23T02:11:41.399Z,100784.34
2023-05-23T02:14:09.393Z,100780.28
2023-05-23T02:16:36.655Z,100783.34
2023-05-23T02:19:04.169Z,100792.78
2023-05-23T02:21:34.283Z,100798.41
2023-05-23T02:24:02.014Z,100795.94
2023-05-23T02:26:28.932Z,100799.88
2023-05-23T02:28:55.778Z,100794.09
2023-05-23T02:31:23.491Z,100800.66
2023-05-23T02:33:50.432Z,100795.56
2023-05-23T02:36:17.269Z,100799.44
2023-05-23T02:38:44.084Z,100803.22
2023-05-23T02:41:11.009Z,100807.09
2023-05-23T02:43:39.231Z,100810.00
2023-05-23T02:46:06.068Z,100815.50
2023-05-23T02:48:32.890Z,100812.91
2023-05-23T02:50:59.921Z,100818.41
2023-05-23T02:53:26.931Z,100819.47
2023-05-23T02:55:53.751Z,100809.78
2023-05-23T02:58:20.738Z,100814.31
2023-05-23T03:00:47.657Z,100813.69
2023-05-23T03:03:14.724Z,100816.53
2023-05-23T03:05:42.158Z,100817.59
2023-05-23T03:08:09.312Z,100809.56
2023-05-23T03:10:36.357Z,100815.06
2023-05-23T03:13:03.428Z,100808.06
2023-05-23T03:15:30.429Z,100816.22
2023-05-23T03:17:57.429Z,100813.53
2023-05-23T03:20:24.468Z,100806.28
2023-05-23T03:22:51.448Z,100806.38
2023-05-23T03:25:18.391Z,100808.19
2023-05-23T03:27:45.694Z,100807.34
2023-05-23T03:30:13.419Z,100809.16
2023-05-23T03:32:40.459Z,100806.63
2023-05-23T03:35:08.202Z,100807.66
2023-05-23T03:37:35.346Z,100804.25
2023-05-23T03:40:02.506Z,100803.44
2023-05-23T03:42:30.045Z,100798.16
2023-05-23T03:44:57.769Z,100807.25
2023-05-23T03:47:24.774Z,100803.81
2023-05-23T03:49:51.835Z,100802.13
2023-05-23T03:52:18.885Z,100808.25
2023-05-23T03:54:46.206Z,100797.47
2023-05-23T03:57:13.147Z,100801.84
2023-05-23T03:59:40.183Z,100815.13
2023-05-23T04:02:07.384Z,100822.25
2023-05-23T04:04:34.508Z,100818.72
2023-05-23T04:07:01.739Z,100826.91
2023-05-23T04:09:29.118Z,100824.25
2023-05-23T04:11:56.141Z,100825.25
2023-05-23T04:14:24.280Z,100810.19
2023-05-23T04:16:51.431Z,100814.66
2023-05-23T04:19:18.560Z,100814.63
2023-05-23T04:21:45.508Z,100819.03
2023-05-23T04:24:12.392Z,100821.72
2023-05-23T04:26:39.428Z,100820.00
2023-05-23T04:29:06.530Z,100819.03
2023-05-23T04:31:34.282Z,100813.63
2023-05-23T04:34:02.441Z,100820.66
2023-05-23T04:36:30.204Z,100816.94
2023-05-23T04:38:57.052Z,100819.56
2023-05-23T04:41:24.104Z,100824.94
2023-05-23T04:43:54.266Z,100814.13
2023-05-23T04:46:27.565Z,100822.19
2023-05-23T04:48:55.147Z,100821.34
2023-05-23T04:51:22.285Z,100820.50
2023-05-23T04:53:50.977Z,100821.50
2023-05-23T04:56:19.392Z,100813.63
2023-05-23T04:58:48.111Z,100823.59
2023-05-23T05:01:15.670Z,100812.94
2023-05-23T05:03:42.796Z,100816.47
2023-05-23T05:06:09.694Z,100819.00
2023-05-23T05:08:36.829Z,100813.59
2023-05-23T05:11:03.686Z,100815.41
2023-05-23T05:13:30.510Z,100822.53
2023-05-23T05:15:57.359Z,100815.31
2023-05-23T05:18:24.437Z,100816.28
2023-05-23T05:20:51.243Z,100818.13
2023-05-23T05:23:18.165Z,100815.44
2023-05-23T05:25:45.946Z,100830.63
2023-05-23T05:28:12.883Z,100836.13
2023-05-23T05:30:40.118Z,100827.34
2023-05-23T05:33:07.777Z,100833.66
2023-05-23T05:35:40.486Z,100823.81
2023-05-23T05:38:08.431Z,100822.03
2023-05-23T05:40:35.405Z,100824.56
2023-05-23T05:43:02.374Z,100828.97
2023-05-23T05:45:29.214Z,100832.59
2023-05-23T05:47:56.075Z,100826.28
2023-05-23T05:50:22.961Z,100828.97
2023-05-23T05:52:49.837Z,100829.91
2023-05-23T05:55:16.896Z,100830.94
2023-05-23T05:57:43.771Z,100829.28
2023-05-23T06:00:15.125Z,100825.75
2023-05-23T06:02:51.500Z,100822.16
2023-05-23T06:05:18.537Z,100828.38
2023-05-23T06:07:45.470Z,100831.06
2023-05-23T06:10:13.720Z,100829.19
2023-05-23T06:12:40.900Z,100831.81
2023-05-23T06:15:09.601Z,100833.63
2023-05-23T06:17:36.496Z,100833.66
2023-05-23T06:20:04.945Z,100832.84
2023-05-23T06:22:31.970Z,100840.09
2023-05-23T06:24:58.893Z,100835.72
2023-05-23T06:27:25.750Z,100833.09
2023-05-23T06:29:52.721Z,100834.84
2023-05-23T06:32:20.729Z,100837.50
2023-05-23T06:34:47.547Z,100838.38
2023-05-23T06:37:14.427Z,100839.34
2023-05-23T06:39:41.259Z,100837.69
2023-05-23T06:42:08.228Z,100845.81
2023-05-23T06:44:35.080Z,100839.66
2023-05-23T06:47:01.895Z,100828.13
2023-05-23T06:49:29.088Z,100835.38
2023-05-23T06:51:55.918Z,100840.78
2023-05-23T06:54:22.780Z,100834.66
2023-05-23T06:56:49.592Z,100846.38
2023-05-23T06:59:16.478Z,100850.16
2023-05-23T07:01:43.323Z,100855.75
2023-05-23T07:04:12.007Z,100861.28
2023-05-23T07:06:39.908Z,100861.47
2023-05-23T07:09:06.869Z,100859.00
2023-05-23T07:11:33.694Z,100865.38
2023-05-23T07:14:00.872Z,100854.94
2023-05-23T07:16:27.822Z,100862.28
2023-05-23T07:18:54.705Z,100863.41
2023-05-23T07:21:21.501Z,100863.59
2023-05-23T07:23:48.323Z,100861.94
2023-05-23T07:26:15.210Z,100871.75
2023-05-23T07:28:42.067Z,100868.22
2023-05-23T07:31:10.233Z,100869.19
2023-05-23T07:33:37.104Z,100878.16
2023-05-23T07:36:03.984Z,100872.78
2023-05-23T07:38:30.999Z,100880.97
2023-05-23T07:41:09.935Z,100888.19
2023-05-23T07:43:38.091Z,100871.25
2023-05-23T07:46:05.017Z,100880.31
2023-05-23T07:48:32.229Z,100885.78
2023-05-23T07:50:59.208Z,100890.44
2023-05-23T07:53:26.383Z,100890.59
2023-05-23T07:55:53.378Z,100895.16
2023-05-23T07:58:20.185Z,100891.75
2023-05-23T08:00:47.036Z,100900.81
2023-05-23T08:03:13.959Z,100898.25
2023-05-23T08:05:40.855Z,100901.88
2023-05-23T08:08:07.782Z,100901.13
2023-05-23T08:10:34.590Z,100911.94
2023-05-23T08:13:06.624Z,100914.75
2023-05-23T08:15:33.872Z,100913.13
2023-05-23T08:18:00.868Z,100918.56
2023-05-23T08:20:31.370Z,100917.78
2023-05-23T08:23:02.629Z,100923.16
2023-05-23T08:25:34.156Z,100924.16
2023-05-23T08:28:01.709Z,100918.97
2023-05-23T08:30:29.244Z,100920.78
2023-05-23T08:32:57.021Z,100928.84
2023-05-23T08:35:24.323Z,100934.19
2023-05-23T08:37:52.608Z,100940.50
2023-05-23T08:40:23.285Z,100942.34
2023-05-23T08:42:51.320Z,100937.09
2023-05-23T08:45:19.191Z,100944.28
2023-05-23T08:47:47.332Z,100963.03
2023-05-23T08:50:17.554Z,100958.72
2023-05-23T08:52:56.960Z,100967.72
2023-05-23T08:55:29.783Z,100971.41
2023-05-23T08:58:01.557Z,100973.28
2023-05-23T09:00:29.125Z,100974.16
2023-05-23T09:02:57.238Z,100978.69
2023-05-23T09:05:24.366Z,100979.66
2023-05-23T09:07:51.761Z,100986.81
2023-05-23T09:10:22.433Z,100996.69
2023-05-23T09:12:49.855Z,100997.69
2023-05-23T09:15:17.119Z,100999.53
2023-05-23T09:17:45.134Z,101005.81
2023-05-23T09:20:15.337Z,101004.09
2023-05-23T09:22:49.139Z,101005.00
2023-05-23T09:25:16.296Z,101022.91
2023-05-23T09:27:45.762Z,101023.81
2023-05-23T09:30:15.385Z,101022.13
2023-05-23T09:32:42.592Z,101020.31
2023-05-23T09:35:14.001Z,101038.09
2023-05-23T09:37:45.911Z,101034.56
2023-05-23T09:40:15.289Z,101038.16
2023-05-23T09:42:44.925Z,101036.44
2023-05-23T09:45:16.698Z,101052.56
2023-05-23T09:47:53.786Z,101052.59
2023-05-23T09:50:22.661Z,101050.00
2023-05-23T09:52:51.054Z,101050.91
2023-05-23T09:55:18.690Z,101053.59
2023-05-23T09:57:50.581Z,101063.44
2023-05-23T10:00:18.751Z,101071.47
2023-05-23T10:03:14.688Z,101061.78
2023-05-23T10:05:50.054Z,101070.72
2023-05-23T10:08:39.407Z,101079.66
2023-05-23T10:11:35.175Z,101083.22
2023-05-23T10:14:07.057Z,101093.84
2023-05-23T10:17:03.687Z,101093.91
2023-05-23T10:19:54.783Z,101102.97
2023-05-23T10:22:23.348Z,101113.63
2023-05-23T10:24:51.073Z,101115.47
2023-05-23T10:27:18.259Z,101119.09
2023-05-23T10:29:45.280Z,101120.97
2023-05-23T10:32:14.999Z,101121.03
2023-05-23T10:35:06.282Z,101131.75
2023-05-23T10:37:45.182Z,101130.03
2023-05-23T10:40:26.636Z,101130.09
2023-05-23T10:43:01.946Z,101140.72
2023-05-23T10:45:29.081Z,101153.19
2023-05-23T10:47:56.164Z,101143.31
2023-05-23T10:50:37.272Z,101158.41
2023-05-23T10:53:06.137Z,101159.34
2023-05-23T10:55:37.150Z,101151.31
2023-05-23T10:58:21.789Z,101158.47
2023-05-23T11:01:02.270Z,101160.44
2023-05-23T11:03:37.973Z,101165.72
2023-05-23T11:06:05.969Z,101162.16
2023-05-23T11:08:48.477Z,101162.16
2023-05-23T11:11:15.928Z,101166.69
2023-05-23T11:14:00.058Z,101174.69
2023-05-23T11:16:42.178Z,101191.66
2023-05-23T11:19:22.856Z,101191.69
2023-05-23T11:21:56.151Z,101195.25
2023-05-23T11:24:23.514Z,101197.03
2023-05-23T11:27:01.100Z,101203.25
2023-05-23T11:29:28.931Z,101199.69
2023-05-23T11:31:57.330Z,101219.31
2023-05-23T11:34:27.172Z,101210.38
2023-05-23T11:36:56.166Z,101213.94
2023-05-23T11:39:23.702Z,101213.03
2023-05-23T11:42:03.748Z,101220.16
2023-05-23T11:44:30.931Z,101221.94
2023-05-23T11:47:15.837Z,101222.78
2023-05-23T11:49:47.010Z,101228.03
2023-05-23T11:52:14.729Z,101234.22
2023-05-23T11:54:43.368Z,101234.16
2023-05-23T11:57:11.360Z,101232.38
2023-05-23T11:59:38.581Z,101231.50
2023-05-23T12:02:07.982Z,101236.84
2023-05-23T12:04:36.955Z,101236.84
2023-05-23T12:07:06.454Z,101238.56
2023-05-23T12:09:41.872Z,101250.13
2023-05-23T12:12:08.733Z,101247.50
2023-05-23T12:14:35.842Z,101248.34
2023-05-23T12:17:02.760Z,101242.94
2023-05-23T12:19:29.685Z,101249.09
2023-05-23T12:21:56.580Z,101238.31
2023-05-23T12:24:23.674Z,101239.06
2023-05-23T12:27:00.197Z,101244.22
2023-05-23T12:29:37.104Z,101240.56
2023-05-23T12:32:06.949Z,101237.81
2023-05-23T12:34:33.851Z,101250.16
2023-05-23T12:37:17.954Z,101248.34
2023-05-23T12:39:46.286Z,101241.19
2023-05-23T12:42:13.186Z,101253.56
2023-05-23T12:44:43.697Z,101255.19
2023-05-23T12:47:10.755Z,101244.38
2023-05-23T12:49:38.145Z,101251.38
2023-05-23T12:52:05.084Z,101249.44
2023-05-23T12:54:31.912Z,101238.56
2023-05-23T12:56:58.721Z,101242.81
2023-05-23T12:59:25.605Z,101246.22
2023-05-23T13:01:52.513Z,101252.38
2023-05-23T13:04:19.445Z,101250.56
2023-05-23T13:06:46.711Z,101256.72
2023-05-23T13:09:13.536Z,101263.81
2023-05-23T13:11:41.614Z,101253.06
2023-05-23T13:14:08.570Z,101254.81
2023-05-23T13:16:36.293Z,101248.50
2023-05-23T13:19:03.179Z,101253.75
2023-05-23T13:21:30.176Z,101261.63
2023-05-23T13:23:57.028Z,101247.25
2023-05-23T13:26:23.861Z,101246.16
2023-05-23T13:28:50.690Z,101258.38
2023-05-23T13:31:17.631Z,101251.91
2023-05-23T13:33:44.479Z,101262.47
2023-05-23T13:36:11.341Z,101255.00
2023-05-23T13:38:38.246Z,101268.09
2023-05-23T13:41:05.133Z,101266.97
2023-05-23T13:43:32.065Z,101264.88
2023-05-23T13:45:59.155Z,101272.81
2023-05-23T13:48:26.087Z,101262.88
2023-05-23T13:50:53.107Z,101261.97
2023-05-23T13:53:21.467Z,101273.63
2023-05-23T13:55:48.417Z,101276.25
2023-05-23T13:58:15.303Z,101276.25
2023-05-23T14:00:43.157Z,101277.09
2023-05-23T14:03:10.424Z,101283.22
2023-05-23T14:05:37.435Z,101284.00
2023-05-23T14:08:04.575Z,101287.44
2023-05-23T14:10:33.281Z,101291.84
2023-05-23T14:13:00.351Z,101289.97
2023-05-23T14:15:28.020Z,101296.13
2023-05-23T14:17:56.410Z,101313.00
2023-05-23T14:20:23.654Z,101308.50
2023-05-23T14:22:51.581Z,101306.81
2023-05-23T14:25:18.864Z,101311.41
2023-05-23T14:27:45.728Z,101309.75
2023-05-23T14:30:13.063Z,101316.09
2023-05-23T14:32:40.267Z,101316.16
2023-05-23T14:35:10.587Z,101320.66
2023-05-23T14:37:37.700Z,101310.84
2023-05-23T14:40:10.159Z,101308.28
2023-05-23T14:42:37.669Z,101307.50
2023-05-23T14:45:05.034Z,101306.59
2023-05-23T14:47:32.581Z,101329.75
2023-05-23T14:49:59.784Z,101320.78
2023-05-23T14:52:26.724Z,101315.41
2023-05-23T14:54:53.527Z,101315.41
2023-05-23T14:57:20.667Z,101331.53
2023-05-23T14:59:47.744Z,101324.34
2023-05-23T15:02:15.539Z,101326.06
2023-05-23T15:04:42.641Z,101333.22
2023-05-23T15:07:09.568Z,101327.84
2023-05-23T15:09:36.484Z,101339.47
2023-05-23T15:12:05.181Z,101333.38
2023-05-23T15:14:32.176Z,101343.38
2023-05-23T15:17:08.052Z,101347.16
2023-05-23T15:19:36.774Z,101347.38
2023-05-23T15:22:06.749Z,101350.16
2023-05-23T15:24:34.970Z,101351.22
2023-05-23T15:27:15.858Z,101341.41
2023-05-23T15:29:46.785Z,101345.09
2023-05-23T15:32:13.753Z,101337.91
2023-05-23T15:34:40.754Z,101346.69
2023-05-23T15:37:07.573Z,101347.56
2023-05-23T15:39:34.438Z,101345.75
2023-05-23T15:42:01.289Z,101353.72
2023-05-23T15:44:28.158Z,101354.59
2023-05-23T15:46:55.416Z,101347.53
2023-05-23T15:49:26.462Z,101353.78
2023-05-23T15:51:55.070Z,101353.84
2023-05-23T15:54:22.170Z,101347.69
2023-05-23T15:56:49.028Z,101362.94
2023-05-23T15:59:16.300Z,101359.47
2023-05-23T16:01:43.263Z,101366.66
2023-05-23T16:04:10.192Z,101360.47
2023-05-23T16:06:39.293Z,101356.97
2023-05-23T16:09:06.339Z,101359.69
2023-05-23T16:11:33.225Z,101367.81
2023-05-23T16:14:00.085Z,101359.88
2023-05-23T16:16:26.988Z,101361.69
2023-05-23T16:18:54.007Z,101370.69
2023-05-23T16:21:21.123Z,101366.19
2023-05-23T16:23:51.316Z,101368.06
2023-05-23T16:26:19.087Z,101372.53
2023-05-23T16:28:45.903Z,101368.00
2023-05-23T16:31:17.007Z,101375.09
2023-05-23T16:33:44.841Z,101372.38
2023-05-23T16:36:11.737Z,101357.06
2023-05-23T16:38:38.800Z,101365.84
2023-05-23T16:41:05.716Z,101369.34
2023-05-23T16:43:33.424Z,101366.75
2023-05-23T16:46:00.365Z,101368.59
2023-05-23T16:48:27.338Z,101370.34
2023-05-23T16:50:55.205Z,101373.94
2023-05-23T16:53:22.239Z,101366.75
2023-05-23T16:55:49.372Z,101370.34
2023-05-23T16:58:18.645Z,101378.34
2023-05-23T17:00:46.957Z,101372.03
2023-05-23T17:03:13.843Z,101363.97
2023-05-23T17:05:41.185Z,101369.41
2023-05-23T17:08:08.322Z,101368.59
2023-05-23T17:10:35.460Z,101384.72
2023-05-23T17:13:02.246Z,101367.84
2023-05-23T17:15:29.232Z,101369.69
2023-05-23T17:17:56.144Z,101372.47
2023-05-23T17:20:24.358Z,101370.75
2023-05-23T17:22:51.883Z,101380.75
2023-05-23T17:25:19.051Z,101389.81
2023-05-23T17:27:46.252Z,101390.97
2023-05-23T17:30:18.120Z,101388.44
2023-05-23T17:32:49.737Z,101393.97
2023-05-23T17:35:16.586Z,101396.84
2023-05-23T17:37:44.782Z,101391.59
2023-05-23T17:40:12.579Z,101395.34
2023-05-23T17:42:40.718Z,101405.28
2023-05-23T17:45:09.401Z,101406.25
2023-05-23T17:47:36.344Z,101398.25
2023-05-23T17:50:04.899Z,101397.44
2023-05-23T17:52:32.474Z,101407.28
2023-05-23T17:54:59.293Z,101404.59
2023-05-23T17:57:26.750Z,101406.44
2023-05-23T17:59:53.715Z,101403.78
2023-05-23T18:02:20.563Z,101415.38
2023-05-23T18:04:47.639Z,101415.44
2023-05-23T18:07:18.550Z,101417.22
2023-05-23T18:09:46.993Z,101415.50
2023-05-23T18:12:14.688Z,101427.16
2023-05-23T18:14:42.105Z,101429.84
2023-05-23T18:17:09.728Z,101429.91
2023-05-23T18:19:36.816Z,101425.50
2023-05-23T18:22:03.811Z,101428.19
2023-05-23T18:24:30.724Z,101431.78
2023-05-23T18:26:58.272Z,101436.28
2023-05-23T18:29:25.228Z,101438.13
2023-05-23T18:31:52.047Z,101448.88
2023-05-23T18:34:18.996Z,101444.44
2023-05-23T18:36:46.142Z,101451.63
2023-05-23T18:39:15.567Z,101452.53
2023-05-23T18:41:42.754Z,101453.53
2023-05-23T18:44:09.591Z,101458.00
2023-05-23T18:46:36.686Z,101453.66
2023-05-23T18:49:04.826Z,101461.69
2023-05-23T18:51:32.432Z,101466.22
2023-05-23T18:53:59.373Z,101472.53
2023-05-23T18:56:26.896Z,101478.81
2023-05-23T18:58:53.745Z,101486.00
2023-05-23T19:01:21.347Z,101476.22
2023-05-23T19:03:48.585Z,101483.41
2023-05-23T19:06:15.864Z,101488.78
2023-05-23T19:08:42.960Z,101486.16
2023-05-23T19:11:10.793Z,101488.00
2023-05-23T19:13:37.991Z,101488.03
2023-05-23T19:16:05.093Z,101490.75
2023-05-23T19:18:32.112Z,101511.31
2023-05-23T19:20:59.158Z,101514.88
2023-05-23T19:23:26.492Z,101518.50
2023-05-23T19:25:53.389Z,101518.53
2023-05-23T19:28:20.317Z,101515.91
2023-05-23T19:30:47.297Z,101519.50
2023-05-23T19:33:14.552Z,101515.09
2023-05-23T19:35:41.571Z,101523.97
2023-05-23T19:38:08.463Z,101520.50
2023-05-23T19:40:35.365Z,101527.63
2023-05-23T19:43:02.185Z,101526.72
2023-05-23T19:45:29.020Z,101516.13
2023-05-23T19:47:57.989Z,101536.59
2023-05-23T19:50:24.866Z,101534.84
2023-05-23T19:52:52.237Z,101542.88
2023-05-23T19:55:19.501Z,101544.66
2023-05-23T19:57:46.552Z,101545.56
2023-05-23T20:00:14.732Z,101551.78
2023-05-23T20:02:42.519Z,101551.81
2023-05-23T20:05:09.628Z,101551.84
2023-05-23T20:07:36.630Z,101553.63
2023-05-23T20:10:04.130Z,101543.88
2023-05-23T20:12:31.014Z,101555.47
2023-05-23T20:14:57.843Z,101556.38
2023-05-23T20:17:24.709Z,101558.19
2023-05-23T20:19:51.641Z,101563.50
2023-05-23T20:22:18.575Z,101558.19
2023-05-23T20:24:46.624Z,101568.00
2023-05-23T20:27:13.613Z,101566.22
2023-05-23T20:29:40.679Z,101567.16
2023-05-23T20:32:07.499Z,101572.50
2023-05-23T20:34:34.424Z,101571.63
2023-05-23T20:37:01.558Z,101571.66
2023-05-23T20:39:28.412Z,101573.44
2023-05-23T20:41:55.286Z,101582.31
2023-05-23T20:44:22.145Z,101579.66
2023-05-23T20:46:49.169Z,101574.34
2023-05-23T20:49:16.589Z,101579.69
2023-05-23T20:51:43.531Z,101588.56
2023-05-23T20:54:10.434Z,101584.13
2023-05-23T20:56:37.283Z,101582.38
2023-05-23T20:59:04.125Z,101583.25
2023-05-23T21:01:30.972Z,101587.72
2023-05-23T21:03:57.985Z,101601.03
2023-05-23T21:06:24.831Z,101593.94
2023-05-23T21:08:51.654Z,101594.84
2023-05-23T21:11:18.548Z,101592.16
2023-05-23T21:13:45.620Z,101593.06
2023-05-23T21:16:14.458Z,101585.94
2023-05-23T21:18:41.600Z,101598.38
2023-05-23T21:21:08.464Z,101599.28
2023-05-23T21:23:35.349Z,101589.53
2023-05-23T21:26:02.314Z,101594.84
2023-05-23T21:28:29.156Z,101594.88
2023-05-23T21:30:56.551Z,101597.53
2023-05-23T21:33:23.435Z,101591.31
2023-05-23T21:35:51.133Z,101602.88
2023-05-23T21:38:17.992Z,101601.06
2023-05-23T21:40:45.029Z,101593.94
2023-05-23T21:43:12.132Z,101593.94
2023-05-23T21:45:39.279Z,101590.41
2023-05-23T21:48:06.190Z,101599.25
2023-05-23T21:50:33.098Z,101606.38
2023-05-23T21:52:59.918Z,101600.19
2023-05-23T21:55:27.285Z,101599.28
2023-05-23T21:57:54.170Z,101595.72
2023-05-23T22:00:22.513Z,101599.28
2023-05-23T22:02:49.453Z,101601.06
2023-05-23T22:05:16.598Z,101601.06
2023-05-23T22:07:43.458Z,101601.94
2023-05-23T22:10:11.229Z,101600.19
2023-05-23T22:12:38.668Z,101595.75
2023-05-23T22:15:08.168Z,101595.72
2023-05-23T22:17:35.263Z,101584.19
2023-05-23T22:20:05.203Z,101594.84
2023-05-23T22:22:32.184Z,101591.28
2023-05-23T22:24:59.123Z,101592.19
2023-05-23T22:27:26.043Z,101588.63
2023-05-23T22:29:53.099Z,101586.84
2023-05-23T22:32:22.849Z,101582.41
2023-05-23T22:34:49.747Z,101579.72
2023-05-23T22:37:18.322Z,101582.41
2023-05-23T22:39:45.134Z,101588.63
2023-05-23T22:42:11.986Z,101585.94
2023-05-23T22:44:38.792Z,101586.81
2023-05-23T22:47:10.119Z,101585.03
2023-05-23T22:49:37.490Z,101579.72
2023-05-23T22:52:04.709Z,101578.84
2023-05-23T22:54:31.536Z,101577.06
2023-05-23T22:56:58.372Z,101579.72
2023-05-23T22:59:25.285Z,101581.47
2023-05-23T23:01:52.203Z,101586.81
2023-05-23T23:04:23.564Z,101587.66
2023-05-23T23:06:53.522Z,101577.91
2023-05-23T23:09:20.537Z,101585.91
2023-05-23T23:11:47.367Z,101591.25
2023-05-23T23:14:14.206Z,101591.22
2023-05-23T23:16:42.533Z,101595.66
2023-05-23T23:19:09.480Z,101593.00
2023-05-23T23:21:37.559Z,101588.56
2023-05-23T23:24:04.996Z,101589.44
2023-05-23T23:26:31.840Z,101588.53
2023-05-23T23:28:58.652Z,101602.72
2023-05-23T23:31:25.483Z,101604.47
2023-05-23T23:33:52.373Z,101607.13
2023-05-23T23:36:19.172Z,101608.91
2023-05-23T23:38:46.016Z,101607.13
2023-05-23T23:41:12.900Z,101617.75
2023-05-23T23:43:39.691Z,101615.09
2023-05-23T23:46:06.550Z,101606.25
2023-05-23T23:48:33.426Z,101616.00
2023-05-23T23:51:00.302Z,101616.91
2023-05-23T23:55:54.443Z,101617.78
2023-05-23T23:58:21.254Z,101611.59
